sensor_id;sensor_type;location;lat;lon;timestamp;P1;durP1;ratioP1;P2;durP2;ratioP2
21492;SDS011;10908;50.690;4.400;2024-01-06T00:01:25;7.03;;;2.00;;
21492;SDS011;10908;50.690;4.400;2024-01-06T00:03:51;5.68;;;1.98;;
21492;SDS011;10908;50.690;4.400;2024-01-06T00:06:17;5.20;;;2.00;;
21492;SDS011;10908;50.690;4.400;2024-01-06T00:08:42;10.13;;;2.22;;
21492;SDS011;10908;50.690;4.400;2024-01-06T00:11:09;7.72;;;1.90;;
21492;SDS011;10908;50.690;4.400;2024-01-06T00:13:35;10.02;;;2.20;;
21492;SDS011;10908;50.690;4.400;2024-01-06T00:16:01;6.63;;;1.90;;
21492;SDS011;10908;50.690;4.400;2024-01-06T00:18:27;6.63;;;1.95;;
21492;SDS011;10908;50.690;4.400;2024-01-06T00:20:55;8.27;;;1.80;;
21492;SDS011;10908;50.690;4.400;2024-01-06T00:23:21;5.93;;;1.80;;
21492;SDS011;10908;50.690;4.400;2024-01-06T00:25:46;6.47;;;1.60;;
21492;SDS011;10908;50.690;4.400;2024-01-06T00:28:12;6.63;;;1.98;;
21492;SDS011;10908;50.690;4.400;2024-01-06T00:30:38;6.68;;;1.65;;
21492;SDS011;10908;50.690;4.400;2024-01-06T00:33:04;4.70;;;1.70;;
21492;SDS011;10908;50.690;4.400;2024-01-06T00:35:29;5.15;;;1.27;;
21492;SDS011;10908;50.690;4.400;2024-01-06T00:37:55;5.88;;;1.50;;
21492;SDS011;10908;50.690;4.400;2024-01-06T00:40:21;5.93;;;1.48;;
21492;SDS011;10908;50.690;4.400;2024-01-06T00:42:46;6.13;;;1.63;;
21492;SDS011;10908;50.690;4.400;2024-01-06T00:45:12;5.05;;;1.50;;
21492;SDS011;10908;50.690;4.400;2024-01-06T00:47:37;5.45;;;1.42;;
21492;SDS011;10908;50.690;4.400;2024-01-06T00:50:03;7.03;;;1.38;;
21492;SDS011;10908;50.690;4.400;2024-01-06T00:52:29;5.40;;;1.65;;
21492;SDS011;10908;50.690;4.400;2024-01-06T00:54:55;6.47;;;1.65;;
21492;SDS011;10908;50.690;4.400;2024-01-06T00:57:20;6.85;;;1.65;;
21492;SDS011;10908;50.690;4.400;2024-01-06T00:59:49;8.73;;;1.92;;
21492;SDS011;10908;50.690;4.400;2024-01-06T01:02:15;4.50;;;1.65;;
21492;SDS011;10908;50.690;4.400;2024-01-06T01:04:41;5.63;;;2.00;;
21492;SDS011;10908;50.690;4.400;2024-01-06T01:07:07;9.07;;;2.47;;
21492;SDS011;10908;50.690;4.400;2024-01-06T01:09:32;6.85;;;2.00;;
21492;SDS011;10908;50.690;4.400;2024-01-06T01:11:59;7.55;;;2.17;;
21492;SDS011;10908;50.690;4.400;2024-01-06T01:14:25;7.53;;;2.13;;
21492;SDS011;10908;50.690;4.400;2024-01-06T01:16:51;10.02;;;2.35;;
21492;SDS011;10908;50.690;4.400;2024-01-06T01:19:16;7.68;;;2.20;;
21492;SDS011;10908;50.690;4.400;2024-01-06T01:21:42;6.50;;;2.30;;
21492;SDS011;10908;50.690;4.400;2024-01-06T01:24:08;7.13;;;2.42;;
21492;SDS011;10908;50.690;4.400;2024-01-06T01:26:33;10.32;;;2.40;;
21492;SDS011;10908;50.690;4.400;2024-01-06T01:28:59;8.00;;;2.90;;
21492;SDS011;10908;50.690;4.400;2024-01-06T01:31:24;8.15;;;3.20;;
21492;SDS011;10908;50.690;4.400;2024-01-06T01:33:50;13.82;;;3.67;;
21492;SDS011;10908;50.690;4.400;2024-01-06T01:36:16;7.13;;;3.33;;
21492;SDS011;10908;50.690;4.400;2024-01-06T01:38:43;13.48;;;2.85;;
21492;SDS011;10908;50.690;4.400;2024-01-06T01:41:08;8.93;;;2.70;;
21492;SDS011;10908;50.690;4.400;2024-01-06T01:43:34;8.23;;;2.72;;
21492;SDS011;10908;50.690;4.400;2024-01-06T01:46:00;8.48;;;2.78;;
21492;SDS011;10908;50.690;4.400;2024-01-06T01:48:26;11.38;;;2.72;;
21492;SDS011;10908;50.690;4.400;2024-01-06T01:50:55;9.38;;;2.90;;
21492;SDS011;10908;50.690;4.400;2024-01-06T01:53:22;10.45;;;2.90;;
21492;SDS011;10908;50.690;4.400;2024-01-06T01:55:49;11.52;;;3.33;;
21492;SDS011;10908;50.690;4.400;2024-01-06T01:58:15;7.38;;;2.30;;
21492;SDS011;10908;50.690;4.400;2024-01-06T02:00:41;9.02;;;2.75;;
21492;SDS011;10908;50.690;4.400;2024-01-06T02:03:07;7.78;;;2.20;;
21492;SDS011;10908;50.690;4.400;2024-01-06T02:05:36;8.68;;;2.20;;
21492;SDS011;10908;50.690;4.400;2024-01-06T02:08:01;8.35;;;2.30;;
21492;SDS011;10908;50.690;4.400;2024-01-06T02:10:27;7.28;;;2.03;;
21492;SDS011;10908;50.690;4.400;2024-01-06T02:12:54;7.00;;;2.13;;
21492;SDS011;10908;50.690;4.400;2024-01-06T02:15:19;7.22;;;2.50;;
21492;SDS011;10908;50.690;4.400;2024-01-06T02:17:45;4.93;;;1.90;;
21492;SDS011;10908;50.690;4.400;2024-01-06T02:20:11;6.00;;;1.73;;
21492;SDS011;10908;50.690;4.400;2024-01-06T02:22:37;6.75;;;2.00;;
21492;SDS011;10908;50.690;4.400;2024-01-06T02:25:07;7.70;;;2.15;;
21492;SDS011;10908;50.690;4.400;2024-01-06T02:27:38;7.07;;;1.95;;
21492;SDS011;10908;50.690;4.400;2024-01-06T02:30:05;7.28;;;1.95;;
21492;SDS011;10908;50.690;4.400;2024-01-06T02:32:31;4.43;;;1.80;;
21492;SDS011;10908;50.690;4.400;2024-01-06T02:34:56;5.25;;;2.00;;
21492;SDS011;10908;50.690;4.400;2024-01-06T02:37:22;4.05;;;1.80;;
21492;SDS011;10908;50.690;4.400;2024-01-06T02:39:48;6.93;;;1.65;;
21492;SDS011;10908;50.690;4.400;2024-01-06T02:42:13;6.10;;;2.00;;
21492;SDS011;10908;50.690;4.400;2024-01-06T02:44:39;6.40;;;1.95;;
21492;SDS011;10908;50.690;4.400;2024-01-06T02:47:05;4.38;;;1.73;;
21492;SDS011;10908;50.690;4.400;2024-01-06T02:49:30;3.33;;;1.30;;
21492;SDS011;10908;50.690;4.400;2024-01-06T02:51:56;5.35;;;1.60;;
21492;SDS011;10908;50.690;4.400;2024-01-06T02:54:22;5.20;;;1.23;;
21492;SDS011;10908;50.690;4.400;2024-01-06T02:56:47;6.00;;;1.60;;
21492;SDS011;10908;50.690;4.400;2024-01-06T02:59:13;5.05;;;1.70;;
21492;SDS011;10908;50.690;4.400;2024-01-06T03:01:38;6.43;;;1.58;;
21492;SDS011;10908;50.690;4.400;2024-01-06T03:04:04;5.25;;;1.58;;
21492;SDS011;10908;50.690;4.400;2024-01-06T03:06:30;3.95;;;1.40;;
21492;SDS011;10908;50.690;4.400;2024-01-06T03:08:55;5.72;;;1.52;;
21492;SDS011;10908;50.690;4.400;2024-01-06T03:11:22;5.88;;;1.45;;
21492;SDS011;10908;50.690;4.400;2024-01-06T03:13:47;4.28;;;1.27;;
21492;SDS011;10908;50.690;4.400;2024-01-06T03:16:13;4.63;;;1.52;;
21492;SDS011;10908;50.690;4.400;2024-01-06T03:18:39;6.40;;;1.55;;
21492;SDS011;10908;50.690;4.400;2024-01-06T03:21:04;5.07;;;1.35;;
21492;SDS011;10908;50.690;4.400;2024-01-06T03:23:30;4.22;;;1.50;;
21492;SDS011;10908;50.690;4.400;2024-01-06T03:25:55;4.88;;;1.70;;
21492;SDS011;10908;50.690;4.400;2024-01-06T03:28:21;6.20;;;1.67;;
21492;SDS011;10908;50.690;4.400;2024-01-06T03:30:47;5.57;;;1.60;;
21492;SDS011;10908;50.690;4.400;2024-01-06T03:33:13;6.90;;;1.98;;
21492;SDS011;10908;50.690;4.400;2024-01-06T03:35:38;6.50;;;1.90;;
21492;SDS011;10908;50.690;4.400;2024-01-06T03:38:04;6.53;;;1.90;;
21492;SDS011;10908;50.690;4.400;2024-01-06T03:40:29;5.15;;;2.00;;
21492;SDS011;10908;50.690;4.400;2024-01-06T03:42:55;6.00;;;2.03;;
21492;SDS011;10908;50.690;4.400;2024-01-06T03:45:21;5.20;;;1.85;;
21492;SDS011;10908;50.690;4.400;2024-01-06T03:47:46;5.75;;;2.30;;
21492;SDS011;10908;50.690;4.400;2024-01-06T03:50:12;5.38;;;1.80;;
21492;SDS011;10908;50.690;4.400;2024-01-06T03:52:38;5.45;;;1.90;;
21492;SDS011;10908;50.690;4.400;2024-01-06T03:55:04;5.90;;;1.90;;
21492;SDS011;10908;50.690;4.400;2024-01-06T03:57:30;5.13;;;1.90;;
21492;SDS011;10908;50.690;4.400;2024-01-06T03:59:57;4.80;;;1.73;;
21492;SDS011;10908;50.690;4.400;2024-01-06T04:02:22;7.25;;;1.55;;
21492;SDS011;10908;50.690;4.400;2024-01-06T04:04:48;6.90;;;1.50;;
21492;SDS011;10908;50.690;4.400;2024-01-06T04:07:14;5.25;;;1.60;;
21492;SDS011;10908;50.690;4.400;2024-01-06T04:09:41;4.60;;;1.60;;
21492;SDS011;10908;50.690;4.400;2024-01-06T04:12:08;6.30;;;1.55;;
21492;SDS011;10908;50.690;4.400;2024-01-06T04:14:34;3.47;;;1.75;;
21492;SDS011;10908;50.690;4.400;2024-01-06T04:16:59;4.60;;;1.65;;
21492;SDS011;10908;50.690;4.400;2024-01-06T04:19:25;7.25;;;1.73;;
21492;SDS011;10908;50.690;4.400;2024-01-06T04:21:51;5.05;;;1.85;;
21492;SDS011;10908;50.690;4.400;2024-01-06T04:24:16;4.40;;;2.00;;
21492;SDS011;10908;50.690;4.400;2024-01-06T04:26:42;6.22;;;1.85;;
21492;SDS011;10908;50.690;4.400;2024-01-06T04:29:10;8.18;;;2.20;;
21492;SDS011;10908;50.690;4.400;2024-01-06T04:31:36;4.68;;;2.00;;
21492;SDS011;10908;50.690;4.400;2024-01-06T04:34:02;6.05;;;2.22;;
21492;SDS011;10908;50.690;4.400;2024-01-06T04:36:28;6.88;;;2.60;;
21492;SDS011;10908;50.690;4.400;2024-01-06T04:38:54;8.50;;;2.95;;
21492;SDS011;10908;50.690;4.400;2024-01-06T04:41:20;6.60;;;3.00;;
21492;SDS011;10908;50.690;4.400;2024-01-06T04:43:46;6.32;;;2.90;;
21492;SDS011;10908;50.690;4.400;2024-01-06T04:46:12;9.75;;;3.67;;
21492;SDS011;10908;50.690;4.400;2024-01-06T04:48:39;8.82;;;3.60;;
21492;SDS011;10908;50.690;4.400;2024-01-06T04:51:06;5.97;;;3.40;;
21492;SDS011;10908;50.690;4.400;2024-01-06T04:53:35;6.75;;;3.20;;
21492;SDS011;10908;50.690;4.400;2024-01-06T04:56:01;8.15;;;3.72;;
21492;SDS011;10908;50.690;4.400;2024-01-06T04:58:27;6.47;;;3.50;;
21492;SDS011;10908;50.690;4.400;2024-01-06T05:00:52;8.43;;;3.47;;
21492;SDS011;10908;50.690;4.400;2024-01-06T05:03:18;7.10;;;3.78;;
21492;SDS011;10908;50.690;4.400;2024-01-06T05:05:44;8.52;;;4.13;;
21492;SDS011;10908;50.690;4.400;2024-01-06T05:08:10;10.25;;;4.30;;
21492;SDS011;10908;50.690;4.400;2024-01-06T05:10:35;9.38;;;4.25;;
21492;SDS011;10908;50.690;4.400;2024-01-06T05:13:01;9.10;;;4.00;;
21492;SDS011;10908;50.690;4.400;2024-01-06T05:15:27;9.00;;;4.65;;
21492;SDS011;10908;50.690;4.400;2024-01-06T05:17:52;8.05;;;4.47;;
21492;SDS011;10908;50.690;4.400;2024-01-06T05:20:18;10.35;;;4.82;;
21492;SDS011;10908;50.690;4.400;2024-01-06T05:22:43;9.27;;;4.63;;
21492;SDS011;10908;50.690;4.400;2024-01-06T05:25:09;10.32;;;4.97;;
21492;SDS011;10908;50.690;4.400;2024-01-06T05:27:35;8.88;;;4.53;;
21492;SDS011;10908;50.690;4.400;2024-01-06T05:30:01;9.85;;;5.07;;
21492;SDS011;10908;50.690;4.400;2024-01-06T05:32:27;11.57;;;4.97;;
21492;SDS011;10908;50.690;4.400;2024-01-06T05:34:52;10.65;;;5.13;;
21492;SDS011;10908;50.690;4.400;2024-01-06T05:37:18;13.20;;;5.13;;
21492;SDS011;10908;50.690;4.400;2024-01-06T05:39:43;8.50;;;4.43;;
21492;SDS011;10908;50.690;4.400;2024-01-06T05:42:09;15.23;;;5.18;;
21492;SDS011;10908;50.690;4.400;2024-01-06T05:44:39;11.48;;;5.13;;
21492;SDS011;10908;50.690;4.400;2024-01-06T05:47:04;10.30;;;5.35;;
21492;SDS011;10908;50.690;4.400;2024-01-06T05:49:30;14.90;;;5.32;;
21492;SDS011;10908;50.690;4.400;2024-01-06T05:51:56;16.77;;;5.18;;
21492;SDS011;10908;50.690;4.400;2024-01-06T05:54:21;9.10;;;4.78;;
21492;SDS011;10908;50.690;4.400;2024-01-06T05:56:47;12.00;;;4.97;;
21492;SDS011;10908;50.690;4.400;2024-01-06T05:59:13;11.05;;;5.18;;
21492;SDS011;10908;50.690;4.400;2024-01-06T06:01:39;14.82;;;4.90;;
21492;SDS011;10908;50.690;4.400;2024-01-06T06:04:05;10.70;;;4.63;;
21492;SDS011;10908;50.690;4.400;2024-01-06T06:06:31;9.23;;;4.35;;
21492;SDS011;10908;50.690;4.400;2024-01-06T06:08:56;8.15;;;4.00;;
21492;SDS011;10908;50.690;4.400;2024-01-06T06:11:22;10.68;;;4.50;;
21492;SDS011;10908;50.690;4.400;2024-01-06T06:13:47;8.82;;;4.20;;
21492;SDS011;10908;50.690;4.400;2024-01-06T06:16:13;11.40;;;4.25;;
21492;SDS011;10908;50.690;4.400;2024-01-06T06:18:39;9.70;;;4.50;;
21492;SDS011;10908;50.690;4.400;2024-01-06T06:21:06;11.85;;;4.80;;
21492;SDS011;10908;50.690;4.400;2024-01-06T06:23:32;11.93;;;4.80;;
21492;SDS011;10908;50.690;4.400;2024-01-06T06:25:59;11.23;;;5.05;;
21492;SDS011;10908;50.690;4.400;2024-01-06T06:28:28;10.63;;;4.55;;
21492;SDS011;10908;50.690;4.400;2024-01-06T06:30:54;12.05;;;5.10;;
21492;SDS011;10908;50.690;4.400;2024-01-06T06:33:19;14.48;;;5.63;;
21492;SDS011;10908;50.690;4.400;2024-01-06T06:35:45;10.90;;;4.88;;
21492;SDS011;10908;50.690;4.400;2024-01-06T06:38:11;12.60;;;5.32;;
21492;SDS011;10908;50.690;4.400;2024-01-06T06:40:36;12.90;;;5.50;;
21492;SDS011;10908;50.690;4.400;2024-01-06T06:43:02;13.10;;;5.55;;
21492;SDS011;10908;50.690;4.400;2024-01-06T06:45:28;9.80;;;4.68;;
21492;SDS011;10908;50.690;4.400;2024-01-06T06:47:53;11.00;;;5.35;;
21492;SDS011;10908;50.690;4.400;2024-01-06T06:50:19;11.38;;;5.07;;
21492;SDS011;10908;50.690;4.400;2024-01-06T06:52:48;11.63;;;5.10;;
21492;SDS011;10908;50.690;4.400;2024-01-06T06:55:14;9.15;;;5.20;;
21492;SDS011;10908;50.690;4.400;2024-01-06T06:57:39;12.85;;;5.22;;
21492;SDS011;10908;50.690;4.400;2024-01-06T07:00:05;14.93;;;5.07;;
21492;SDS011;10908;50.690;4.400;2024-01-06T07:02:35;12.38;;;5.20;;
21492;SDS011;10908;50.690;4.400;2024-01-06T07:05:00;9.68;;;5.28;;
21492;SDS011;10908;50.690;4.400;2024-01-06T07:07:26;12.10;;;6.03;;
21492;SDS011;10908;50.690;4.400;2024-01-06T07:09:52;10.55;;;4.75;;
21492;SDS011;10908;50.690;4.400;2024-01-06T07:12:17;13.25;;;5.75;;
21492;SDS011;10908;50.690;4.400;2024-01-06T07:14:43;12.98;;;4.80;;
21492;SDS011;10908;50.690;4.400;2024-01-06T07:17:09;10.77;;;4.30;;
21492;SDS011;10908;50.690;4.400;2024-01-06T07:19:35;10.82;;;4.78;;
21492;SDS011;10908;50.690;4.400;2024-01-06T07:22:01;8.77;;;4.25;;
21492;SDS011;10908;50.690;4.400;2024-01-06T07:24:30;8.77;;;4.68;;
21492;SDS011;10908;50.690;4.400;2024-01-06T07:26:55;8.57;;;4.15;;
21492;SDS011;10908;50.690;4.400;2024-01-06T07:29:21;9.10;;;4.85;;
21492;SDS011;10908;50.690;4.400;2024-01-06T07:31:47;10.70;;;4.80;;
21492;SDS011;10908;50.690;4.400;2024-01-06T07:34:12;10.43;;;5.10;;
21492;SDS011;10908;50.690;4.400;2024-01-06T07:36:38;11.60;;;5.68;;
21492;SDS011;10908;50.690;4.400;2024-01-06T07:39:04;13.52;;;5.38;;
21492;SDS011;10908;50.690;4.400;2024-01-06T07:41:31;12.90;;;5.10;;
21492;SDS011;10908;50.690;4.400;2024-01-06T07:43:57;8.65;;;4.50;;
21492;SDS011;10908;50.690;4.400;2024-01-06T07:46:23;10.75;;;4.70;;
21492;SDS011;10908;50.690;4.400;2024-01-06T07:48:49;9.05;;;4.43;;
21492;SDS011;10908;50.690;4.400;2024-01-06T07:51:14;11.52;;;4.35;;
21492;SDS011;10908;50.690;4.400;2024-01-06T07:53:40;10.57;;;4.78;;
21492;SDS011;10908;50.690;4.400;2024-01-06T07:56:07;11.73;;;5.20;;
21492;SDS011;10908;50.690;4.400;2024-01-06T07:58:33;8.57;;;4.32;;
21492;SDS011;10908;50.690;4.400;2024-01-06T08:00:59;14.23;;;5.05;;
21492;SDS011;10908;50.690;4.400;2024-01-06T08:03:24;12.70;;;4.88;;
21492;SDS011;10908;50.690;4.400;2024-01-06T08:05:50;11.07;;;5.13;;
21492;SDS011;10908;50.690;4.400;2024-01-06T08:08:15;11.23;;;5.05;;
21492;SDS011;10908;50.690;4.400;2024-01-06T08:10:42;13.45;;;5.03;;
21492;SDS011;10908;50.690;4.400;2024-01-06T08:13:08;12.40;;;5.57;;
21492;SDS011;10908;50.690;4.400;2024-01-06T08:15:33;10.48;;;5.75;;
21492;SDS011;10908;50.690;4.400;2024-01-06T08:17:59;11.77;;;5.95;;
21492;SDS011;10908;50.690;4.400;2024-01-06T08:20:25;11.25;;;6.10;;
21492;SDS011;10908;50.690;4.400;2024-01-06T08:22:50;10.57;;;6.15;;
21492;SDS011;10908;50.690;4.400;2024-01-06T08:25:16;14.23;;;6.20;;
21492;SDS011;10908;50.690;4.400;2024-01-06T08:27:45;14.85;;;5.93;;
21492;SDS011;10908;50.690;4.400;2024-01-06T08:30:10;12.80;;;5.68;;
21492;SDS011;10908;50.690;4.400;2024-01-06T08:32:37;14.63;;;6.40;;
21492;SDS011;10908;50.690;4.400;2024-01-06T08:35:03;10.00;;;5.45;;
21492;SDS011;10908;50.690;4.400;2024-01-06T08:37:29;14.35;;;6.30;;
21492;SDS011;10908;50.690;4.400;2024-01-06T08:39:58;12.88;;;6.30;;
21492;SDS011;10908;50.690;4.400;2024-01-06T08:42:23;13.20;;;6.60;;
21492;SDS011;10908;50.690;4.400;2024-01-06T08:44:50;13.02;;;6.40;;
21492;SDS011;10908;50.690;4.400;2024-01-06T08:47:16;13.32;;;6.70;;
21492;SDS011;10908;50.690;4.400;2024-01-06T08:49:42;10.57;;;6.18;;
21492;SDS011;10908;50.690;4.400;2024-01-06T08:52:08;11.70;;;6.32;;
21492;SDS011;10908;50.690;4.400;2024-01-06T08:54:33;13.30;;;6.65;;
21492;SDS011;10908;50.690;4.400;2024-01-06T08:57:00;16.80;;;7.68;;
21492;SDS011;10908;50.690;4.400;2024-01-06T08:59:25;10.80;;;5.45;;
21492;SDS011;10908;50.690;4.400;2024-01-06T09:01:51;13.95;;;5.95;;
21492;SDS011;10908;50.690;4.400;2024-01-06T09:04:18;10.98;;;5.25;;
21492;SDS011;10908;50.690;4.400;2024-01-06T09:06:43;9.15;;;5.05;;
21492;SDS011;10908;50.690;4.400;2024-01-06T09:09:11;10.65;;;4.82;;
21492;SDS011;10908;50.690;4.400;2024-01-06T09:11:37;9.63;;;4.55;;
21492;SDS011;10908;50.690;4.400;2024-01-06T09:14:03;8.02;;;4.60;;
21492;SDS011;10908;50.690;4.400;2024-01-06T09:16:28;10.40;;;5.43;;
21492;SDS011;10908;50.690;4.400;2024-01-06T09:18:54;11.35;;;4.95;;
21492;SDS011;10908;50.690;4.400;2024-01-06T09:21:20;11.27;;;5.20;;
21492;SDS011;10908;50.690;4.400;2024-01-06T09:23:46;9.75;;;5.40;;
21492;SDS011;10908;50.690;4.400;2024-01-06T09:26:12;12.40;;;5.22;;
21492;SDS011;10908;50.690;4.400;2024-01-06T09:28:37;11.70;;;4.80;;
21492;SDS011;10908;50.690;4.400;2024-01-06T09:31:04;9.77;;;4.60;;
21492;SDS011;10908;50.690;4.400;2024-01-06T09:33:30;8.20;;;4.50;;
21492;SDS011;10908;50.690;4.400;2024-01-06T09:35:57;8.75;;;4.60;;
21492;SDS011;10908;50.690;4.400;2024-01-06T09:38:23;10.50;;;4.47;;
21492;SDS011;10908;50.690;4.400;2024-01-06T09:40:48;9.90;;;4.45;;
21492;SDS011;10908;50.690;4.400;2024-01-06T09:43:14;8.10;;;4.05;;
21492;SDS011;10908;50.690;4.400;2024-01-06T09:45:40;5.45;;;3.28;;
21492;SDS011;10908;50.690;4.400;2024-01-06T09:48:12;7.07;;;3.30;;
21492;SDS011;10908;50.690;4.400;2024-01-06T09:50:42;7.35;;;3.35;;
21492;SDS011;10908;50.690;4.400;2024-01-06T09:53:11;8.57;;;3.35;;
21492;SDS011;10908;50.690;4.400;2024-01-06T09:55:39;7.57;;;3.47;;
21492;SDS011;10908;50.690;4.400;2024-01-06T09:58:04;6.90;;;3.72;;
21492;SDS011;10908;50.690;4.400;2024-01-06T10:00:33;7.88;;;3.42;;
21492;SDS011;10908;50.690;4.400;2024-01-06T10:02:59;7.30;;;3.25;;
21492;SDS011;10908;50.690;4.400;2024-01-06T10:05:25;6.38;;;3.35;;
21492;SDS011;10908;50.690;4.400;2024-01-06T10:07:50;8.25;;;3.55;;
21492;SDS011;10908;50.690;4.400;2024-01-06T10:10:17;6.70;;;3.55;;
21492;SDS011;10908;50.690;4.400;2024-01-06T10:12:42;7.97;;;3.55;;
21492;SDS011;10908;50.690;4.400;2024-01-06T10:15:09;7.40;;;3.33;;
21492;SDS011;10908;50.690;4.400;2024-01-06T10:17:40;6.93;;;3.45;;
21492;SDS011;10908;50.690;4.400;2024-01-06T10:20:10;7.00;;;3.42;;
21492;SDS011;10908;50.690;4.400;2024-01-06T10:22:37;7.95;;;3.90;;
21492;SDS011;10908;50.690;4.400;2024-01-06T10:25:07;7.85;;;3.95;;
21492;SDS011;10908;50.690;4.400;2024-01-06T10:27:39;9.35;;;3.92;;
21492;SDS011;10908;50.690;4.400;2024-01-06T10:30:06;9.40;;;3.88;;
21492;SDS011;10908;50.690;4.400;2024-01-06T10:32:33;9.32;;;3.45;;
21492;SDS011;10908;50.690;4.400;2024-01-06T10:35:01;7.68;;;3.50;;
21492;SDS011;10908;50.690;4.400;2024-01-06T10:37:28;10.45;;;4.00;;
21492;SDS011;10908;50.690;4.400;2024-01-06T10:40:10;9.70;;;3.75;;
21492;SDS011;10908;50.690;4.400;2024-01-06T10:42:38;10.18;;;4.10;;
21492;SDS011;10908;50.690;4.400;2024-01-06T10:45:08;13.20;;;3.97;;
21492;SDS011;10908;50.690;4.400;2024-01-06T10:47:35;10.82;;;3.83;;
21492;SDS011;10908;50.690;4.400;2024-01-06T10:50:02;7.78;;;4.50;;
21492;SDS011;10908;50.690;4.400;2024-01-06T10:52:29;11.35;;;4.43;;
21492;SDS011;10908;50.690;4.400;2024-01-06T10:54:55;9.82;;;4.40;;
21492;SDS011;10908;50.690;4.400;2024-01-06T10:57:22;8.48;;;4.22;;
21492;SDS011;10908;50.690;4.400;2024-01-06T10:59:52;8.50;;;4.43;;
21492;SDS011;10908;50.690;4.400;2024-01-06T11:02:17;13.98;;;4.80;;
21492;SDS011;10908;50.690;4.400;2024-01-06T11:04:45;8.40;;;4.53;;
21492;SDS011;10908;50.690;4.400;2024-01-06T11:07:12;11.13;;;4.95;;
21492;SDS011;10908;50.690;4.400;2024-01-06T11:09:40;9.25;;;4.80;;
21492;SDS011;10908;50.690;4.400;2024-01-06T11:12:16;11.20;;;5.15;;
21492;SDS011;10908;50.690;4.400;2024-01-06T11:14:42;9.65;;;5.20;;
21492;SDS011;10908;50.690;4.400;2024-01-06T11:17:07;11.48;;;5.05;;
21492;SDS011;10908;50.690;4.400;2024-01-06T11:24:49;10.23;;;5.28;;
21492;SDS011;10908;50.690;4.400;2024-01-06T11:27:26;11.45;;;5.97;;
21492;SDS011;10908;50.690;4.400;2024-01-06T11:29:56;10.73;;;5.50;;
21492;SDS011;10908;50.690;4.400;2024-01-06T11:34:54;11.45;;;5.50;;
21492;SDS011;10908;50.690;4.400;2024-01-06T11:39:59;12.32;;;5.70;;
21492;SDS011;10908;50.690;4.400;2024-01-06T11:42:32;12.07;;;5.97;;
21492;SDS011;10908;50.690;4.400;2024-01-06T11:45:03;10.00;;;5.63;;
21492;SDS011;10908;50.690;4.400;2024-01-06T11:47:33;14.13;;;6.18;;
21492;SDS011;10908;50.690;4.400;2024-01-06T11:49:59;12.73;;;6.22;;
21492;SDS011;10908;50.690;4.400;2024-01-06T11:52:29;12.27;;;6.25;;
21492;SDS011;10908;50.690;4.400;2024-01-06T11:54:59;12.75;;;6.13;;
21492;SDS011;10908;50.690;4.400;2024-01-06T11:57:26;13.02;;;6.65;;
21492;SDS011;10908;50.690;4.400;2024-01-06T11:59:52;11.30;;;6.00;;
21492;SDS011;10908;50.690;4.400;2024-01-06T12:02:18;11.32;;;6.30;;
21492;SDS011;10908;50.690;4.400;2024-01-06T12:04:48;13.52;;;7.05;;
21492;SDS011;10908;50.690;4.400;2024-01-06T12:07:16;12.65;;;6.50;;
21492;SDS011;10908;50.690;4.400;2024-01-06T12:09:42;11.80;;;5.97;;
21492;SDS011;10908;50.690;4.400;2024-01-06T12:12:07;13.18;;;6.88;;
21492;SDS011;10908;50.690;4.400;2024-01-06T12:14:38;12.75;;;6.97;;
21492;SDS011;10908;50.690;4.400;2024-01-06T12:17:07;13.50;;;7.35;;
21492;SDS011;10908;50.690;4.400;2024-01-06T12:19:34;13.95;;;7.68;;
21492;SDS011;10908;50.690;4.400;2024-01-06T12:22:00;13.07;;;6.78;;
21492;SDS011;10908;50.690;4.400;2024-01-06T12:24:27;15.30;;;6.93;;
21492;SDS011;10908;50.690;4.400;2024-01-06T12:26:57;13.00;;;7.65;;
21492;SDS011;10908;50.690;4.400;2024-01-06T12:29:27;11.05;;;6.60;;
21492;SDS011;10908;50.690;4.400;2024-01-06T12:31:58;10.73;;;6.60;;
21492;SDS011;10908;50.690;4.400;2024-01-06T12:34:25;12.27;;;6.60;;
21492;SDS011;10908;50.690;4.400;2024-01-06T12:36:52;11.45;;;6.45;;
21492;SDS011;10908;50.690;4.400;2024-01-06T12:39:20;12.77;;;6.43;;
21492;SDS011;10908;50.690;4.400;2024-01-06T12:41:48;10.82;;;6.68;;
21492;SDS011;10908;50.690;4.400;2024-01-06T12:44:16;11.43;;;6.75;;
21492;SDS011;10908;50.690;4.400;2024-01-06T12:46:41;12.77;;;6.57;;
21492;SDS011;10908;50.690;4.400;2024-01-06T12:49:07;13.68;;;7.30;;
21492;SDS011;10908;50.690;4.400;2024-01-06T12:51:33;14.70;;;7.93;;
21492;SDS011;10908;50.690;4.400;2024-01-06T12:53:59;12.95;;;7.03;;
21492;SDS011;10908;50.690;4.400;2024-01-06T12:56:25;12.25;;;6.13;;
21492;SDS011;10908;50.690;4.400;2024-01-06T12:58:51;9.75;;;6.07;;
21492;SDS011;10908;50.690;4.400;2024-01-06T13:01:18;10.40;;;5.47;;
21492;SDS011;10908;50.690;4.400;2024-01-06T13:03:45;10.63;;;5.70;;
21492;SDS011;10908;50.690;4.400;2024-01-06T13:06:11;9.10;;;5.47;;
21492;SDS011;10908;50.690;4.400;2024-01-06T13:08:38;11.65;;;4.93;;
21492;SDS011;10908;50.690;4.400;2024-01-06T13:11:04;9.20;;;5.18;;
21492;SDS011;10908;50.690;4.400;2024-01-06T13:13:30;10.73;;;5.00;;
21492;SDS011;10908;50.690;4.400;2024-01-06T13:15:57;9.25;;;4.80;;
21492;SDS011;10908;50.690;4.400;2024-01-06T13:18:22;10.55;;;5.00;;
21492;SDS011;10908;50.690;4.400;2024-01-06T13:20:48;9.25;;;5.07;;
21492;SDS011;10908;50.690;4.400;2024-01-06T13:23:14;9.07;;;4.90;;
21492;SDS011;10908;50.690;4.400;2024-01-06T13:25:40;7.32;;;4.03;;
21492;SDS011;10908;50.690;4.400;2024-01-06T13:28:06;10.07;;;5.03;;
21492;SDS011;10908;50.690;4.400;2024-01-06T13:30:33;9.95;;;4.75;;
21492;SDS011;10908;50.690;4.400;2024-01-06T13:32:59;9.40;;;4.13;;
21492;SDS011;10908;50.690;4.400;2024-01-06T13:35:25;8.45;;;4.00;;
21492;SDS011;10908;50.690;4.400;2024-01-06T13:37:51;9.90;;;4.00;;
21492;SDS011;10908;50.690;4.400;2024-01-06T13:40:18;7.45;;;4.13;;
21492;SDS011;10908;50.690;4.400;2024-01-06T13:42:47;9.55;;;4.72;;
21492;SDS011;10908;50.690;4.400;2024-01-06T13:45:14;8.52;;;4.70;;
21492;SDS011;10908;50.690;4.400;2024-01-06T13:47:39;10.13;;;4.93;;
21492;SDS011;10908;50.690;4.400;2024-01-06T13:50:11;10.55;;;5.32;;
21492;SDS011;10908;50.690;4.400;2024-01-06T13:52:38;10.25;;;5.50;;
21492;SDS011;10908;50.690;4.400;2024-01-06T13:55:04;12.00;;;5.55;;
21492;SDS011;10908;50.690;4.400;2024-01-06T13:57:30;9.90;;;5.35;;
21492;SDS011;10908;50.690;4.400;2024-01-06T13:59:56;11.82;;;5.63;;
21492;SDS011;10908;50.690;4.400;2024-01-06T14:02:22;10.18;;;4.85;;
21492;SDS011;10908;50.690;4.400;2024-01-06T14:04:48;8.68;;;5.15;;
21492;SDS011;10908;50.690;4.400;2024-01-06T14:07:14;10.93;;;5.32;;
21492;SDS011;10908;50.690;4.400;2024-01-06T14:09:43;10.48;;;5.40;;
21492;SDS011;10908;50.690;4.400;2024-01-06T14:12:10;9.65;;;5.00;;
21492;SDS011;10908;50.690;4.400;2024-01-06T14:14:35;9.15;;;5.05;;
21492;SDS011;10908;50.690;4.400;2024-01-06T14:17:01;9.35;;;4.57;;
21492;SDS011;10908;50.690;4.400;2024-01-06T14:19:27;11.13;;;5.28;;
21492;SDS011;10908;50.690;4.400;2024-01-06T14:21:53;8.85;;;5.10;;
21492;SDS011;10908;50.690;4.400;2024-01-06T14:24:19;9.00;;;4.85;;
21492;SDS011;10908;50.690;4.400;2024-01-06T14:26:49;10.65;;;4.80;;
21492;SDS011;10908;50.690;4.400;2024-01-06T14:29:15;9.52;;;4.93;;
21492;SDS011;10908;50.690;4.400;2024-01-06T14:31:42;11.15;;;4.93;;
21492;SDS011;10908;50.690;4.400;2024-01-06T14:34:08;8.73;;;4.45;;
21492;SDS011;10908;50.690;4.400;2024-01-06T14:36:34;9.30;;;4.10;;
21492;SDS011;10908;50.690;4.400;2024-01-06T14:38:59;9.10;;;4.45;;
21492;SDS011;10908;50.690;4.400;2024-01-06T14:41:26;10.55;;;4.53;;
21492;SDS011;10908;50.690;4.400;2024-01-06T14:43:52;10.65;;;4.53;;
21492;SDS011;10908;50.690;4.400;2024-01-06T14:46:17;9.18;;;4.55;;
21492;SDS011;10908;50.690;4.400;2024-01-06T14:48:44;6.93;;;4.20;;